sensor_id;sensor_type;location;lat;lon;timestamp;P1;durP1;ratioP1;P2;durP2;ratioP2
25391;SDS011;13329;48.402;11.718;2023-03-31T00:02:16;5.87;;;1.80;;
25391;SDS011;13329;48.402;11.718;2023-03-31T00:04:45;2.92;;;1.50;;
25391;SDS011;13329;48.402;11.718;2023-03-31T00:07:16;3.13;;;1.60;;
25391;SDS011;13329;48.402;11.718;2023-03-31T00:09:45;2.35;;;1.58;;
25391;SDS011;13329;48.402;11.718;2023-03-31T00:12:12;4.33;;;1.93;;
25391;SDS011;13329;48.402;11.718;2023-03-31T00:14:37;2.15;;;1.35;;
25391;SDS011;13329;48.402;11.718;2023-03-31T00:17:03;4.57;;;1.73;;
25391;SDS011;13329;48.402;11.718;2023-03-31T00:19:28;3.00;;;1.65;;
25391;SDS011;13329;48.402;11.718;2023-03-31T00:21:57;4.20;;;1.55;;
25391;SDS011;13329;48.402;11.718;2023-03-31T00:24:25;6.55;;;1.58;;
25391;SDS011;13329;48.402;11.718;2023-03-31T00:26:51;4.80;;;1.83;;
25391;SDS011;13329;48.402;11.718;2023-03-31T00:29:16;3.77;;;1.83;;
25391;SDS011;13329;48.402;11.718;2023-03-31T00:31:41;2.80;;;1.60;;
25391;SDS011;13329;48.402;11.718;2023-03-31T00:34:06;5.23;;;1.87;;
25391;SDS011;13329;48.402;11.718;2023-03-31T00:36:31;2.35;;;1.80;;
25391;SDS011;13329;48.402;11.718;2023-03-31T00:39:00;2.70;;;1.52;;
25391;SDS011;13329;48.402;11.718;2023-03-31T00:41:33;7.72;;;1.77;;
25391;SDS011;13329;48.402;11.718;2023-03-31T00:44:09;2.78;;;1.67;;
25391;SDS011;13329;48.402;11.718;2023-03-31T00:46:44;3.05;;;1.73;;
25391;SDS011;13329;48.402;11.718;2023-03-31T00:49:15;4.93;;;1.65;;
25391;SDS011;13329;48.402;11.718;2023-03-31T00:51:44;6.68;;;2.15;;
25391;SDS011;13329;48.402;11.718;2023-03-31T00:54:10;6.40;;;2.20;;
25391;SDS011;13329;48.402;11.718;2023-03-31T00:56:36;3.40;;;1.98;;
25391;SDS011;13329;48.402;11.718;2023-03-31T00:59:05;7.15;;;1.98;;
25391;SDS011;13329;48.402;11.718;2023-03-31T01:01:31;3.33;;;1.88;;
25391;SDS011;13329;48.402;11.718;2023-03-31T01:03:59;3.42;;;1.90;;
25391;SDS011;13329;48.402;11.718;2023-03-31T01:06:26;5.28;;;1.88;;
25391;SDS011;13329;48.402;11.718;2023-03-31T01:08:54;3.25;;;2.30;;
25391;SDS011;13329;48.402;11.718;2023-03-31T01:11:20;4.45;;;2.20;;
25391;SDS011;13329;48.402;11.718;2023-03-31T01:13:47;4.13;;;2.05;;
25391;SDS011;13329;48.402;11.718;2023-03-31T01:16:15;4.10;;;1.85;;
25391;SDS011;13329;48.402;11.718;2023-03-31T01:18:40;4.07;;;2.40;;
25391;SDS011;13329;48.402;11.718;2023-03-31T01:21:27;5.55;;;1.98;;
25391;SDS011;13329;48.402;11.718;2023-03-31T01:37:15;5.10;;;2.33;;
25391;SDS011;13329;48.402;11.718;2023-03-31T01:42:35;4.22;;;2.03;;
25391;SDS011;13329;48.402;11.718;2023-03-31T01:47:36;4.35;;;2.25;;
25391;SDS011;13329;48.402;11.718;2023-03-31T01:50:09;3.45;;;1.85;;
25391;SDS011;13329;48.402;11.718;2023-03-31T01:52:44;3.42;;;2.03;;
25391;SDS011;13329;48.402;11.718;2023-03-31T01:57:53;5.88;;;2.00;;
25391;SDS011;13329;48.402;11.718;2023-03-31T02:00:22;4.43;;;2.25;;
25391;SDS011;13329;48.402;11.718;2023-03-31T02:02:49;4.28;;;2.15;;
25391;SDS011;13329;48.402;11.718;2023-03-31T02:05:18;9.07;;;2.20;;
25391;SDS011;13329;48.402;11.718;2023-03-31T02:07:58;3.83;;;2.30;;
25391;SDS011;13329;48.402;11.718;2023-03-31T02:10:25;3.05;;;2.08;;
25391;SDS011;13329;48.402;11.718;2023-03-31T02:12:53;6.15;;;2.25;;
25391;SDS011;13329;48.402;11.718;2023-03-31T02:15:20;7.40;;;2.40;;
25391;SDS011;13329;48.402;11.718;2023-03-31T02:17:48;5.75;;;2.22;;
25391;SDS011;13329;48.402;11.718;2023-03-31T02:20:16;4.93;;;2.10;;
25391;SDS011;13329;48.402;11.718;2023-03-31T02:22:42;3.00;;;1.75;;
25391;SDS011;13329;48.402;11.718;2023-03-31T02:25:10;3.72;;;1.52;;
25391;SDS011;13329;48.402;11.718;2023-03-31T02:27:38;4.03;;;1.75;;
25391;SDS011;13329;48.402;11.718;2023-03-31T02:30:06;4.82;;;1.88;;
25391;SDS011;13329;48.402;11.718;2023-03-31T02:32:38;2.83;;;1.63;;
25391;SDS011;13329;48.402;11.718;2023-03-31T02:35:04;3.03;;;1.35;;
25391;SDS011;13329;48.402;11.718;2023-03-31T02:37:31;4.68;;;1.95;;
25391;SDS011;13329;48.402;11.718;2023-03-31T02:39:57;6.20;;;2.20;;
25391;SDS011;13329;48.402;11.718;2023-03-31T02:42:24;5.43;;;2.22;;
25391;SDS011;13329;48.402;11.718;2023-03-31T02:44:49;3.63;;;2.53;;
25391;SDS011;13329;48.402;11.718;2023-03-31T02:47:14;3.13;;;1.88;;
25391;SDS011;13329;48.402;11.718;2023-03-31T02:49:43;4.50;;;2.20;;
25391;SDS011;13329;48.402;11.718;2023-03-31T02:54:51;4.22;;;2.13;;
25391;SDS011;13329;48.402;11.718;2023-03-31T02:57:24;5.85;;;2.05;;
25391;SDS011;13329;48.402;11.718;2023-03-31T02:59:56;5.72;;;1.65;;
25391;SDS011;13329;48.402;11.718;2023-03-31T03:10:01;3.28;;;2.13;;
25391;SDS011;13329;48.402;11.718;2023-03-31T03:12:47;3.42;;;1.80;;
25391;SDS011;13329;48.402;11.718;2023-03-31T03:15:17;2.55;;;1.77;;
25391;SDS011;13329;48.402;11.718;2023-03-31T03:17:46;5.40;;;1.90;;
25391;SDS011;13329;48.402;11.718;2023-03-31T03:20:12;3.38;;;2.33;;
25391;SDS011;13329;48.402;11.718;2023-03-31T03:22:38;4.00;;;2.15;;
25391;SDS011;13329;48.402;11.718;2023-03-31T03:25:05;5.95;;;2.60;;
25391;SDS011;13329;48.402;11.718;2023-03-31T03:27:30;4.68;;;2.63;;
25391;SDS011;13329;48.402;11.718;2023-03-31T03:29:56;6.82;;;2.83;;
25391;SDS011;13329;48.402;11.718;2023-03-31T03:32:22;7.65;;;2.92;;
25391;SDS011;13329;48.402;11.718;2023-03-31T03:34:47;7.20;;;2.85;;
25391;SDS011;13329;48.402;11.718;2023-03-31T03:37:12;4.17;;;2.33;;
25391;SDS011;13329;48.402;11.718;2023-03-31T03:39:37;5.63;;;3.17;;
25391;SDS011;13329;48.402;11.718;2023-03-31T03:42:02;4.30;;;2.10;;
25391;SDS011;13329;48.402;11.718;2023-03-31T03:44:28;4.00;;;2.55;;
25391;SDS011;13329;48.402;11.718;2023-03-31T03:46:53;4.32;;;2.08;;
25391;SDS011;13329;48.402;11.718;2023-03-31T03:49:18;5.23;;;2.77;;
25391;SDS011;13329;48.402;11.718;2023-03-31T03:51:44;9.10;;;3.20;;
25391;SDS011;13329;48.402;11.718;2023-03-31T03:54:09;6.67;;;2.83;;
25391;SDS011;13329;48.402;11.718;2023-03-31T03:56:34;8.70;;;2.83;;
25391;SDS011;13329;48.402;11.718;2023-03-31T03:59:00;7.97;;;2.83;;
25391;SDS011;13329;48.402;11.718;2023-03-31T04:01:25;6.40;;;2.95;;
25391;SDS011;13329;48.402;11.718;2023-03-31T04:03:50;6.20;;;2.90;;
25391;SDS011;13329;48.402;11.718;2023-03-31T04:06:15;7.73;;;3.10;;
25391;SDS011;13329;48.402;11.718;2023-03-31T04:08:41;9.55;;;3.42;;
25391;SDS011;13329;48.402;11.718;2023-03-31T04:11:13;11.47;;;3.03;;
25391;SDS011;13329;48.402;11.718;2023-03-31T04:13:39;6.03;;;3.05;;
25391;SDS011;13329;48.402;11.718;2023-03-31T04:16:04;7.23;;;3.00;;
25391;SDS011;13329;48.402;11.718;2023-03-31T04:18:29;8.20;;;3.17;;
25391;SDS011;13329;48.402;11.718;2023-03-31T04:20:54;9.37;;;2.60;;
25391;SDS011;13329;48.402;11.718;2023-03-31T04:25:53;6.28;;;2.78;;
25391;SDS011;13329;48.402;11.718;2023-03-31T04:28:18;6.35;;;2.58;;
25391;SDS011;13329;48.402;11.718;2023-03-31T04:30:43;7.20;;;2.90;;
25391;SDS011;13329;48.402;11.718;2023-03-31T04:33:09;10.87;;;2.80;;
25391;SDS011;13329;48.402;11.718;2023-03-31T04:35:34;14.57;;;3.67;;
25391;SDS011;13329;48.402;11.718;2023-03-31T04:38:15;4.25;;;2.80;;
25391;SDS011;13329;48.402;11.718;2023-03-31T04:40:42;7.40;;;3.08;;
25391;SDS011;13329;48.402;11.718;2023-03-31T04:43:08;12.60;;;3.00;;
25391;SDS011;13329;48.402;11.718;2023-03-31T04:45:33;5.53;;;2.03;;
25391;SDS011;13329;48.402;11.718;2023-03-31T04:47:58;6.40;;;3.43;;
25391;SDS011;13329;48.402;11.718;2023-03-31T04:50:23;7.90;;;2.90;;
25391;SDS011;13329;48.402;11.718;2023-03-31T04:52:48;7.23;;;2.90;;
25391;SDS011;13329;48.402;11.718;2023-03-31T04:55:13;12.57;;;4.10;;
25391;SDS011;13329;48.402;11.718;2023-03-31T04:57:39;8.75;;;3.30;;
25391;SDS011;13329;48.402;11.718;2023-03-31T05:00:04;5.63;;;2.90;;
25391;SDS011;13329;48.402;11.718;2023-03-31T05:02:33;8.30;;;3.75;;
25391;SDS011;13329;48.402;11.718;2023-03-31T05:04:58;8.53;;;4.20;;
25391;SDS011;13329;48.402;11.718;2023-03-31T05:07:23;8.27;;;3.47;;
25391;SDS011;13329;48.402;11.718;2023-03-31T05:09:48;10.25;;;3.83;;
25391;SDS011;13329;48.402;11.718;2023-03-31T05:12:13;9.00;;;4.57;;
25391;SDS011;13329;48.402;11.718;2023-03-31T05:14:38;10.60;;;4.27;;
25391;SDS011;13329;48.402;11.718;2023-03-31T05:17:04;11.90;;;4.78;;
25391;SDS011;13329;48.402;11.718;2023-03-31T05:19:29;9.05;;;5.07;;
25391;SDS011;13329;48.402;11.718;2023-03-31T05:21:55;12.80;;;4.15;;
25391;SDS011;13329;48.402;11.718;2023-03-31T05:24:20;11.03;;;4.30;;
25391;SDS011;13329;48.402;11.718;2023-03-31T05:26:46;11.82;;;5.15;;
25391;SDS011;13329;48.402;11.718;2023-03-31T05:29:16;9.35;;;5.00;;
25391;SDS011;13329;48.402;11.718;2023-03-31T05:31:41;10.43;;;5.77;;
25391;SDS011;13329;48.402;11.718;2023-03-31T05:34:06;10.07;;;5.40;;
25391;SDS011;13329;48.402;11.718;2023-03-31T05:36:32;13.97;;;5.20;;
25391;SDS011;13329;48.402;11.718;2023-03-31T05:38:57;11.83;;;4.97;;
25391;SDS011;13329;48.402;11.718;2023-03-31T05:41:22;11.87;;;4.07;;
25391;SDS011;13329;48.402;11.718;2023-03-31T05:43:47;8.07;;;4.23;;
25391;SDS011;13329;48.402;11.718;2023-03-31T05:46:12;10.73;;;5.15;;
25391;SDS011;13329;48.402;11.718;2023-03-31T05:48:37;12.77;;;5.40;;
25391;SDS011;13329;48.402;11.718;2023-03-31T05:51:03;12.97;;;5.13;;
25391;SDS011;13329;48.402;11.718;2023-03-31T05:53:28;10.23;;;4.97;;
25391;SDS011;13329;48.402;11.718;2023-03-31T05:56:00;14.70;;;4.40;;
25391;SDS011;13329;48.402;11.718;2023-03-31T05:58:29;9.35;;;4.28;;
25391;SDS011;13329;48.402;11.718;2023-03-31T06:01:01;10.82;;;4.43;;
25391;SDS011;13329;48.402;11.718;2023-03-31T06:03:27;7.82;;;4.00;;
25391;SDS011;13329;48.402;11.718;2023-03-31T06:05:52;11.47;;;4.77;;
25391;SDS011;13329;48.402;11.718;2023-03-31T06:08:19;11.63;;;6.18;;
25391;SDS011;13329;48.402;11.718;2023-03-31T06:10:44;11.97;;;6.67;;
25391;SDS011;13329;48.402;11.718;2023-03-31T06:13:09;13.23;;;4.85;;
25391;SDS011;13329;48.402;11.718;2023-03-31T06:15:35;12.13;;;5.13;;
25391;SDS011;13329;48.402;11.718;2023-03-31T06:18:00;10.38;;;5.25;;
25391;SDS011;13329;48.402;11.718;2023-03-31T06:20:25;8.73;;;4.23;;
25391;SDS011;13329;48.402;11.718;2023-03-31T06:22:50;7.82;;;4.25;;
25391;SDS011;13329;48.402;11.718;2023-03-31T06:25:15;8.67;;;4.50;;
25391;SDS011;13329;48.402;11.718;2023-03-31T06:27:40;8.67;;;4.70;;
25391;SDS011;13329;48.402;11.718;2023-03-31T06:30:06;13.17;;;5.10;;
25391;SDS011;13329;48.402;11.718;2023-03-31T06:32:31;9.25;;;4.50;;
25391;SDS011;13329;48.402;11.718;2023-03-31T06:34:56;9.18;;;4.82;;
25391;SDS011;13329;48.402;11.718;2023-03-31T06:37:22;9.90;;;4.17;;
25391;SDS011;13329;48.402;11.718;2023-03-31T06:39:47;11.83;;;4.37;;
25391;SDS011;13329;48.402;11.718;2023-03-31T06:42:13;7.22;;;4.10;;
25391;SDS011;13329;48.402;11.718;2023-03-31T06:44:39;15.40;;;4.88;;
25391;SDS011;13329;48.402;11.718;2023-03-31T06:47:04;9.25;;;4.50;;
25391;SDS011;13329;48.402;11.718;2023-03-31T06:49:29;12.97;;;4.33;;
25391;SDS011;13329;48.402;11.718;2023-03-31T06:51:54;11.98;;;4.25;;
25391;SDS011;13329;48.402;11.718;2023-03-31T06:54:19;15.30;;;4.10;;
25391;SDS011;13329;48.402;11.718;2023-03-31T06:56:45;8.88;;;4.65;;
25391;SDS011;13329;48.402;11.718;2023-03-31T06:59:10;10.52;;;4.10;;
25391;SDS011;13329;48.402;11.718;2023-03-31T07:01:35;8.38;;;3.75;;
25391;SDS011;13329;48.402;11.718;2023-03-31T07:04:02;12.35;;;3.92;;
25391;SDS011;13329;48.402;11.718;2023-03-31T07:06:28;13.52;;;3.75;;
25391;SDS011;13329;48.402;11.718;2023-03-31T07:08:53;16.00;;;5.97;;
25391;SDS011;13329;48.402;11.718;2023-03-31T07:11:19;13.88;;;4.85;;
25391;SDS011;13329;48.402;11.718;2023-03-31T07:13:44;11.47;;;4.47;;
25391;SDS011;13329;48.402;11.718;2023-03-31T07:16:10;11.75;;;3.90;;
25391;SDS011;13329;48.402;11.718;2023-03-31T07:18:38;10.95;;;4.60;;
25391;SDS011;13329;48.402;11.718;2023-03-31T07:21:05;12.70;;;4.47;;
25391;SDS011;13329;48.402;11.718;2023-03-31T07:23:31;11.77;;;4.50;;
25391;SDS011;13329;48.402;11.718;2023-03-31T07:25:56;12.20;;;4.03;;
25391;SDS011;13329;48.402;11.718;2023-03-31T07:28:26;11.73;;;4.28;;
25391;SDS011;13329;48.402;11.718;2023-03-31T07:30:51;8.17;;;3.43;;
25391;SDS011;13329;48.402;11.718;2023-03-31T07:33:16;10.87;;;4.60;;
25391;SDS011;13329;48.402;11.718;2023-03-31T07:35:41;10.93;;;3.83;;
25391;SDS011;13329;48.402;11.718;2023-03-31T07:38:10;9.60;;;4.47;;
25391;SDS011;13329;48.402;11.718;2023-03-31T07:40:35;10.90;;;5.70;;
25391;SDS011;13329;48.402;11.718;2023-03-31T07:43:00;8.23;;;3.40;;
25391;SDS011;13329;48.402;11.718;2023-03-31T07:45:25;6.40;;;3.38;;
25391;SDS011;13329;48.402;11.718;2023-03-31T07:47:51;9.32;;;4.72;;
25391;SDS011;13329;48.402;11.718;2023-03-31T07:50:16;12.10;;;4.83;;
25391;SDS011;13329;48.402;11.718;2023-03-31T07:52:41;10.90;;;5.05;;
25391;SDS011;13329;48.402;11.718;2023-03-31T07:55:07;12.50;;;4.73;;
25391;SDS011;13329;48.402;11.718;2023-03-31T07:57:33;11.43;;;5.85;;
25391;SDS011;13329;48.402;11.718;2023-03-31T07:59:58;9.20;;;6.07;;
25391;SDS011;13329;48.402;11.718;2023-03-31T08:02:23;15.80;;;7.37;;
25391;SDS011;13329;48.402;11.718;2023-03-31T08:04:48;13.97;;;6.87;;
25391;SDS011;13329;48.402;11.718;2023-03-31T08:07:14;13.47;;;9.47;;
25391;SDS011;13329;48.402;11.718;2023-03-31T08:09:41;22.33;;;6.53;;
25391;SDS011;13329;48.402;11.718;2023-03-31T08:12:07;15.07;;;7.60;;
25391;SDS011;13329;48.402;11.718;2023-03-31T08:14:32;11.33;;;5.10;;
25391;SDS011;13329;48.402;11.718;2023-03-31T08:16:57;27.00;;;14.70;;
25391;SDS011;13329;48.402;11.718;2023-03-31T08:19:25;26.75;;;15.18;;
25391;SDS011;13329;48.402;11.718;2023-03-31T08:21:51;37.70;;;16.50;;
25391;SDS011;13329;48.402;11.718;2023-03-31T08:24:16;24.05;;;13.07;;
25391;SDS011;13329;48.402;11.718;2023-03-31T08:26:41;12.70;;;7.32;;
25391;SDS011;13329;48.402;11.718;2023-03-31T08:29:06;13.40;;;6.43;;
25391;SDS011;13329;48.402;11.718;2023-03-31T08:31:32;11.90;;;5.78;;
25391;SDS011;13329;48.402;11.718;2023-03-31T08:33:57;9.80;;;4.53;;
25391;SDS011;13329;48.402;11.718;2023-03-31T08:36:22;17.30;;;9.63;;
25391;SDS011;13329;48.402;11.718;2023-03-31T08:38:47;10.73;;;6.13;;
25391;SDS011;13329;48.402;11.718;2023-03-31T08:41:59;11.48;;;5.85;;
25391;SDS011;13329;48.402;11.718;2023-03-31T08:43:59;12.48;;;6.15;;
25391;SDS011;13329;48.402;11.718;2023-03-31T08:46:25;9.93;;;5.30;;
25391;SDS011;13329;48.402;11.718;2023-03-31T08:48:53;14.05;;;5.45;;
25391;SDS011;13329;48.402;11.718;2023-03-31T08:51:21;15.52;;;6.05;;
25391;SDS011;13329;48.402;11.718;2023-03-31T08:53:54;7.28;;;3.65;;
25391;SDS011;13329;48.402;11.718;2023-03-31T08:56:21;8.88;;;4.00;;
25391;SDS011;13329;48.402;11.718;2023-03-31T08:58:50;11.63;;;4.50;;
25391;SDS011;13329;48.402;11.718;2023-03-31T09:01:52;11.77;;;4.32;;
25391;SDS011;13329;48.402;11.718;2023-03-31T09:09:32;10.63;;;4.47;;
25391;SDS011;13329;48.402;11.718;2023-03-31T09:12:04;14.73;;;4.97;;
25391;SDS011;13329;48.402;11.718;2023-03-31T09:14:34;11.65;;;5.35;;
25391;SDS011;13329;48.402;11.718;2023-03-31T09:22:05;6.75;;;3.10;;
25391;SDS011;13329;48.402;11.718;2023-03-31T09:24:38;8.95;;;4.13;;
25391;SDS011;13329;48.402;11.718;2023-03-31T09:27:09;6.75;;;3.67;;
25391;SDS011;13329;48.402;11.718;2023-03-31T09:32:05;7.90;;;3.90;;
25391;SDS011;13329;48.402;11.718;2023-03-31T09:34:35;8.85;;;3.60;;
25391;SDS011;13329;48.402;11.718;2023-03-31T09:37:01;8.90;;;3.03;;
25391;SDS011;13329;48.402;11.718;2023-03-31T09:39:26;7.23;;;3.90;;
25391;SDS011;13329;48.402;11.718;2023-03-31T09:41:52;8.45;;;3.60;;
25391;SDS011;13329;48.402;11.718;2023-03-31T09:46:52;4.20;;;1.60;;
25391;SDS011;13329;48.402;11.718;2023-03-31T09:49:19;6.03;;;2.97;;
25391;SDS011;13329;48.402;11.718;2023-03-31T09:51:45;10.18;;;3.55;;
25391;SDS011;13329;48.402;11.718;2023-03-31T09:54:14;3.13;;;1.73;;
25391;SDS011;13329;48.402;11.718;2023-03-31T09:56:45;6.68;;;2.63;;
25391;SDS011;13329;48.402;11.718;2023-03-31T09:59:15;5.85;;;2.45;;
25391;SDS011;13329;48.402;11.718;2023-03-31T10:01:41;4.93;;;2.33;;
25391;SDS011;13329;48.402;11.718;2023-03-31T10:04:09;5.90;;;1.63;;
25391;SDS011;13329;48.402;11.718;2023-03-31T10:06:41;2.58;;;1.40;;
25391;SDS011;13329;48.402;11.718;2023-03-31T10:09:06;2.70;;;2.00;;
25391;SDS011;13329;48.402;11.718;2023-03-31T10:11:34;4.47;;;1.98;;
25391;SDS011;13329;48.402;11.718;2023-03-31T10:16:29;1.23;;;1.08;;
25391;SDS011;13329;48.402;11.718;2023-03-31T10:18:55;2.15;;;1.10;;
25391;SDS011;13329;48.402;11.718;2023-03-31T10:21:35;2.95;;;1.50;;
25391;SDS011;13329;48.402;11.718;2023-03-31T10:24:00;2.90;;;1.67;;
25391;SDS011;13329;48.402;11.718;2023-03-31T10:26:31;5.28;;;1.50;;
25391;SDS011;13329;48.402;11.718;2023-03-31T10:28:56;3.67;;;1.83;;
25391;SDS011;13329;48.402;11.718;2023-03-31T10:31:25;2.77;;;1.70;;
25391;SDS011;13329;48.402;11.718;2023-03-31T10:33:51;4.82;;;1.83;;
25391;SDS011;13329;48.402;11.718;2023-03-31T10:36:20;1.45;;;0.90;;
25391;SDS011;13329;48.402;11.718;2023-03-31T10:38:46;3.50;;;1.85;;
25391;SDS011;13329;48.402;11.718;2023-03-31T10:41:12;2.75;;;1.20;;
25391;SDS011;13329;48.402;11.718;2023-03-31T10:43:42;4.45;;;1.00;;
25391;SDS011;13329;48.402;11.718;2023-03-31T10:46:08;3.97;;;1.92;;
25391;SDS011;13329;48.402;11.718;2023-03-31T10:48:34;3.75;;;1.63;;
25391;SDS011;13329;48.402;11.718;2023-03-31T10:53:50;5.80;;;1.48;;
25391;SDS011;13329;48.402;11.718;2023-03-31T10:59:47;3.38;;;1.38;;
25391;SDS011;13329;48.402;11.718;2023-03-31T11:06:47;0.85;;;0.60;;
25391;SDS011;13329;48.402;11.718;2023-03-31T11:22:33;0.70;;;0.60;;
25391;SDS011;13329;48.402;11.718;2023-03-31T11:25:08;2.17;;;0.40;;
25391;SDS011;13329;48.402;11.718;2023-03-31T11:30:05;2.20;;;0.57;;
25391;SDS011;13329;48.402;11.718;2023-03-31T11:42:40;1.20;;;0.77;;
25391;SDS011;13329;48.402;11.718;2023-03-31T11:47:57;1.38;;;0.50;;
25391;SDS011;13329;48.402;11.718;2023-03-31T11:50:25;1.15;;;0.52;;
25391;SDS011;13329;48.402;11.718;2023-03-31T11:52:59;1.73;;;0.40;;
25391;SDS011;13329;48.402;11.718;2023-03-31T11:55:26;2.70;;;0.30;;
25391;SDS011;13329;48.402;11.718;2023-03-31T12:00:24;1.75;;;0.20;;
25391;SDS011;13329;48.402;11.718;2023-03-31T12:05:17;0.43;;;0.40;;
25391;SDS011;13329;48.402;11.718;2023-03-31T12:11:01;0.73;;;0.40;;
25391;SDS011;13329;48.402;11.718;2023-03-31T12:15:53;0.70;;;0.40;;
25391;SDS011;13329;48.402;11.718;2023-03-31T12:18:19;3.22;;;0.93;;
25391;SDS011;13329;48.402;11.718;2023-03-31T12:20:56;6.65;;;0.68;;
25391;SDS011;13329;48.402;11.718;2023-03-31T12:23:23;0.40;;;0.40;;
25391;SDS011;13329;48.402;11.718;2023-03-31T12:25:55;0.88;;;0.50;;
25391;SDS011;13329;48.402;11.718;2023-03-31T12:28:21;0.55;;;0.50;;
25391;SDS011;13329;48.402;11.718;2023-03-31T12:30:47;3.47;;;0.50;;
25391;SDS011;13329;48.402;11.718;2023-03-31T12:33:18;1.35;;;0.55;;
25391;SDS011;13329;48.402;11.718;2023-03-31T12:45:54;0.57;;;0.30;;
25391;SDS011;13329;48.402;11.718;2023-03-31T12:53:20;1.60;;;0.20;;
25391;SDS011;13329;48.402;11.718;2023-03-31T12:55:49;0.55;;;0.32;;
25391;SDS011;13329;48.402;11.718;2023-03-31T13:03:35;0.17;;;0.17;;
25391;SDS011;13329;48.402;11.718;2023-03-31T13:06:01;2.17;;;0.50;;
25391;SDS011;13329;48.402;11.718;2023-03-31T13:11:11;0.10;;;0.10;;
25391;SDS011;13329;48.402;11.718;2023-03-31T13:13:37;1.27;;;0.40;;
25391;SDS011;13329;48.402;11.718;2023-03-31T13:16:04;0.20;;;0.20;;
25391;SDS011;13329;48.402;11.718;2023-03-31T13:18:30;0.30;;;0.30;;
25391;SDS011;13329;48.402;11.718;2023-03-31T13:21:00;3.30;;;0.65;;
25391;SDS011;13329;48.402;11.718;2023-03-31T13:23:27;2.58;;;0.52;;
25391;SDS011;13329;48.402;11.718;2023-03-31T13:25:55;0.73;;;0.30;;
25391;SDS011;13329;48.402;11.718;2023-03-31T13:33:15;1.33;;;0.50;;
25391;SDS011;13329;48.402;11.718;2023-03-31T13:35:44;0.47;;;0.35;;
25391;SDS011;13329;48.402;11.718;2023-03-31T13:48:53;1.10;;;0.50;;
25391;SDS011;13329;48.402;11.718;2023-03-31T14:05:01;0.35;;;0.20;;
25391;SDS011;13329;48.402;11.718;2023-03-31T14:07:34;1.83;;;0.40;;
25391;SDS011;13329;48.402;11.718;2023-03-31T14:10:01;0.10;;;0.10;;
25391;SDS011;13329;48.402;11.718;2023-03-31T14:12:29;1.23;;;0.22;;
25391;SDS011;13329;48.402;11.718;2023-03-31T14:14:55;1.42;;;0.75;;
25391;SDS011;13329;48.402;11.718;2023-03-31T14:17:25;2.27;;;0.20;;
25391;SDS011;13329;48.402;11.718;2023-03-31T14:22:46;0.00;;;0.00;;
25391;SDS011;13329;48.402;11.718;2023-03-31T14:25:18;4.07;;;0.30;;
25391;SDS011;13329;48.402;11.718;2023-03-31T14:30:22;2.10;;;0.50;;
25391;SDS011;13329;48.402;11.718;2023-03-31T14:35:36;2.88;;;0.30;;
25391;SDS011;13329;48.402;11.718;2023-03-31T14:38:04;0.50;;;0.30;;
25391;SDS011;13329;48.402;11.718;2023-03-31T14:40:31;1.25;;;0.20;;
25391;SDS011;13329;48.402;11.718;2023-03-31T14:42:56;2.30;;;0.40;;
25391;SDS011;13329;48.402;11.718;2023-03-31T14:45:25;1.55;;;0.40;;
25391;SDS011;13329;48.402;11.718;2023-03-31T14:48:01;0.50;;;0.30;;
25391;SDS011;13329;48.402;11.718;2023-03-31T14:50:33;2.10;;;0.60;;
25391;SDS011;13329;48.402;11.718;2023-03-31T14:52:58;4.32;;;0.30;;
25391;SDS011;13329;48.402;11.718;2023-03-31T14:55:26;0.82;;;0.30;;
25391;SDS011;13329;48.402;11.718;2023-03-31T14:57:52;0.35;;;0.10;;
25391;SDS011;13329;48.402;11.718;2023-03-31T15:00:20;0.93;;;0.20;;
25391;SDS011;13329;48.402;11.718;2023-03-31T15:02:48;1.65;;;0.40;;
25391;SDS011;13329;48.402;11.718;2023-03-31T15:05:32;0.40;;;0.30;;
25391;SDS011;13329;48.402;11.718;2023-03-31T15:08:00;0.52;;;0.35;;
25391;SDS011;13329;48.402;11.718;2023-03-31T15:10:28;0.50;;;0.20;;
25391;SDS011;13329;48.402;11.718;2023-03-31T15:12:54;0.98;;;0.30;;
25391;SDS011;13329;48.402;11.718;2023-03-31T15:15:20;0.10;;;0.10;;
25391;SDS011;13329;48.402;11.718;2023-03-31T15:17:45;0.90;;;0.30;;
25391;SDS011;13329;48.402;11.718;2023-03-31T15:20:44;0.30;;;0.22;;
25391;SDS011;13329;48.402;11.718;2023-03-31T15:23:04;0.43;;;0.28;;
25391;SDS011;13329;48.402;11.718;2023-03-31T15:25:32;0.30;;;0.30;;
25391;SDS011;13329;48.402;11.718;2023-03-31T15:28:09;1.48;;;0.30;;
25391;SDS011;13329;48.402;11.718;2023-03-31T15:30:35;3.10;;;0.50;;
25391;SDS011;13329;48.402;11.718;2023-03-31T15:33:01;1.48;;;0.30;;
25391;SDS011;13329;48.402;11.718;2023-03-31T15:35:29;0.15;;;0.15;;
25391;SDS011;13329;48.402;11.718;2023-03-31T15:37:56;4.63;;;0.30;;
25391;SDS011;13329;48.402;11.718;2023-03-31T15:42:47;0.32;;;0.10;;
25391;SDS011;13329;48.402;11.718;2023-03-31T15:47:53;0.60;;;0.30;;
25391;SDS011;13329;48.402;11.718;2023-03-31T15:50:20;0.25;;;0.17;;
25391;SDS011;13329;48.402;11.718;2023-03-31T15:52:50;2.92;;;0.30;;
25391;SDS011;13329;48.402;11.718;2023-03-31T15:57:50;2.55;;;0.40;;
25391;SDS011;13329;48.402;11.718;2023-03-31T16:02:55;6.75;;;0.93;;
25391;SDS011;13329;48.402;11.718;2023-03-31T16:07:50;2.15;;;0.30;;
25391;SDS011;13329;48.402;11.718;2023-03-31T16:10:16;0.85;;;0.30;;
25391;SDS011;13329;48.402;11.718;2023-03-31T16:12:48;1.40;;;0.50;;
25391;SDS011;13329;48.402;11.718;2023-03-31T16:15:16;3.63;;;0.37;;
25391;SDS011;13329;48.402;11.718;2023-03-31T16:17:49;2.45;;;0.85;;
25391;SDS011;13329;48.402;11.718;2023-03-31T16:20:19;0.70;;;0.20;;
25391;SDS011;13329;48.402;11.718;2023-03-31T16:22:46;0.73;;;0.50;;
25391;SDS011;13329;48.402;11.718;2023-03-31T16:25:15;0.77;;;0.30;;
25391;SDS011;13329;48.402;11.718;2023-03-31T16:27:42;3.75;;;0.38;;
25391;SDS011;13329;48.402;11.718;2023-03-31T16:30:10;1.02;;;0.73;;
25391;SDS011;13329;48.402;11.718;2023-03-31T16:32:35;0.40;;;0.17;;
25391;SDS011;13329;48.402;11.718;2023-03-31T16:35:02;0.27;;;0.20;;
25391;SDS011;13329;48.402;11.718;2023-03-31T16:37:27;0.47;;;0.40;;
25391;SDS011;13329;48.402;11.718;2023-03-31T16:39:52;0.73;;;0.20;;
25391;SDS011;13329;48.402;11.718;2023-03-31T16:42:18;0.33;;;0.30;;
25391;SDS011;13329;48.402;11.718;2023-03-31T16:44:43;1.75;;;0.30;;
25391;SDS011;13329;48.402;11.718;2023-03-31T16:47:10;1.33;;;0.30;;
25391;SDS011;13329;48.402;11.718;2023-03-31T16:49:35;1.73;;;0.30;;
25391;SDS011;13329;48.402;11.718;2023-03-31T16:52:00;0.60;;;0.20;;
25391;SDS011;13329;48.402;11.718;2023-03-31T16:54:25;3.90;;;0.50;;
25391;SDS011;13329;48.402;11.718;2023-03-31T16:56:51;1.88;;;0.40;;
25391;SDS011;13329;48.402;11.718;2023-03-31T16:59:16;1.02;;;0.40;;
25391;SDS011;13329;48.402;11.718;2023-03-31T17:01:41;2.77;;;0.60;;
25391;SDS011;13329;48.402;11.718;2023-03-31T17:04:06;0.80;;;0.32;;
25391;SDS011;13329;48.402;11.718;2023-03-31T17:06:32;1.37;;;0.40;;
25391;SDS011;13329;48.402;11.718;2023-03-31T17:08:57;1.90;;;0.33;;
25391;SDS011;13329;48.402;11.718;2023-03-31T17:11:22;0.75;;;0.30;;
25391;SDS011;13329;48.402;11.718;2023-03-31T17:13:47;4.50;;;0.30;;
25391;SDS011;13329;48.402;11.718;2023-03-31T17:16:13;0.10;;;0.10;;
25391;SDS011;13329;48.402;11.718;2023-03-31T17:18:39;0.98;;;0.22;;
25391;SDS011;13329;48.402;11.718;2023-03-31T17:21:05;0.95;;;0.82;;
25391;SDS011;13329;48.402;11.718;2023-03-31T17:23:31;1.08;;;0.47;;
25391;SDS011;13329;48.402;11.718;2023-03-31T17:25:57;0.55;;;0.20;;
25391;SDS011;13329;48.402;11.718;2023-03-31T17:28:22;0.20;;;0.20;;